createdAt,value
2022-11-07T00:00:53.605Z,91.97
2022-11-07T00:05:55.422Z,92.49
2022-11-07T00:10:56.874Z,91.85
2022-11-07T00:15:59.886Z,92.76
2022-11-07T00:21:02.400Z,93.44
2022-11-07T00:26:05.542Z,93.07
2022-11-07T00:31:08.080Z,92.61
2022-11-07T00:36:11.199Z,92.13
2022-11-07T00:41:12.840Z,92.27
2022-11-07T00:46:15.918Z,92.04
2022-11-07T00:51:20.774Z,91.99
2022-11-07T00:56:24.627Z,91.83
2022-11-07T01:01:32.605Z,91.77
2022-11-07T01:06:37.424Z,91.82
2022-11-07T01:11:39.870Z,91.82
2022-11-07T01:16:42.002Z,92.15
2022-11-07T01:21:43.712Z,91.80
2022-11-07T01:26:47.986Z,91.63
2022-11-07T01:31:49.548Z,90.90
2022-11-07T01:36:50.997Z,91.54
2022-11-07T01:41:52.728Z,91.64
2022-11-07T01:46:57.321Z,92.11
2022-11-07T01:52:06.050Z,91.22
2022-11-07T01:57:12.142Z,91.35
2022-11-07T02:02:13.660Z,92.18
2022-11-07T02:07:23.442Z,92.56
2022-11-07T02:12:26.537Z,93.84
2022-11-07T02:17:29.058Z,93.65
2022-11-07T02:23:00.983Z,93.08
2022-11-07T02:28:06.053Z,92.65
2022-11-07T02:33:22.347Z,92.97
2022-11-07T02:38:30.993Z,92.00
2022-11-07T02:43:35.033Z,91.93
2022-11-07T02:48:48.452Z,92.25
2022-11-07T02:53:50.365Z,92.21
2022-11-07T02:58:52.904Z,92.39
2022-11-07T03:03:54.344Z,92.93
2022-11-07T03:08:55.763Z,92.20
2022-11-07T03:13:57.300Z,91.94
2022-11-07T03:18:58.722Z,92.48
2022-11-07T03:24:00.116Z,92.29
2022-11-07T03:29:01.549Z,92.23
2022-11-07T03:34:03.468Z,91.94
2022-11-07T03:39:04.925Z,91.96
2022-11-07T03:44:06.499Z,91.75
2022-11-07T03:49:08.492Z,91.54
2022-11-07T03:54:10.410Z,91.09
2022-11-07T03:59:11.839Z,90.80
2022-11-07T04:04:13.338Z,91.16
2022-11-07T04:09:14.912Z,90.72
2022-11-07T04:14:34.993Z,90.28
2022-11-07T04:19:36.392Z,90.35
2022-11-07T04:24:41.574Z,90.75
2022-11-07T04:29:46.930Z,90.92
2022-11-07T04:34:48.336Z,90.77
2022-11-07T04:39:49.748Z,90.46
2022-11-07T04:44:51.209Z,90.71
2022-11-07T04:49:52.612Z,90.57
2022-11-07T04:54:54.035Z,90.53
2022-11-07T04:59:55.432Z,90.71
2022-11-07T05:04:56.833Z,91.02
2022-11-07T05:09:58.237Z,91.03
2022-11-07T05:14:59.654Z,90.91
2022-11-07T05:20:01.118Z,90.64
2022-11-07T05:25:02.535Z,90.55
2022-11-07T05:30:05.335Z,90.78
2022-11-07T05:35:07.254Z,91.10
2022-11-07T05:40:09.139Z,91.19
2022-11-07T05:45:10.774Z,91.07
2022-11-07T05:50:12.173Z,90.81
2022-11-07T05:55:13.652Z,90.89
2022-11-07T06:00:16.096Z,90.80
2022-11-07T06:05:23.073Z,90.60
2022-11-07T06:10:25.845Z,90.74
2022-11-07T06:15:29.376Z,90.65
2022-11-07T06:20:30.934Z,90.72
2022-11-07T06:25:33.049Z,90.73
2022-11-07T06:30:35.556Z,90.94
2022-11-07T06:35:37.190Z,90.37
2022-11-07T06:40:40.756Z,90.12
2022-11-07T06:45:42.954Z,89.90
2022-11-07T06:50:44.419Z,89.27
2022-11-07T06:55:45.819Z,89.45
2022-11-07T07:00:47.632Z,89.59
2022-11-07T07:05:49.084Z,89.69
2022-11-07T07:10:50.583Z,89.49
2022-11-07T07:15:56.620Z,89.25
2022-11-07T07:21:12.824Z,89.22
2022-11-07T07:26:16.236Z,88.76
2022-11-07T07:31:20.585Z,88.76
2022-11-07T07:36:22.368Z,89.24
2022-11-07T07:41:23.771Z,88.63
2022-11-07T07:46:25.412Z,87.15
2022-11-07T07:51:26.863Z,85.92
2022-11-07T07:56:28.417Z,85.86
2022-11-07T08:01:30.076Z,85.19
2022-11-07T08:06:32.504Z,84.57
2022-11-07T08:11:33.944Z,84.71
2022-11-07T08:16:35.352Z,84.25
2022-11-07T08:21:36.759Z,83.81
2022-11-07T08:26:38.715Z,83.74
2022-11-07T08:31:40.141Z,82.53
2022-11-07T08:36:41.825Z,82.54
2022-11-07T08:41:43.236Z,81.89
2022-11-07T08:46:44.683Z,80.78
2022-11-07T08:51:46.084Z,80.88
2022-11-07T08:56:49.141Z,80.51
2022-11-07T09:02:28.058Z,80.02
2022-11-07T09:07:12.034Z,77.89
2022-11-07T09:12:13.518Z,78.93
2022-11-07T09:17:14.947Z,77.71
2022-11-07T09:22:16.398Z,77.39
2022-11-07T09:27:17.855Z,78.55
2022-11-07T09:32:43.213Z,77.28
2022-11-07T09:37:42.150Z,77.38
2022-11-07T09:43:12.136Z,76.89
2022-11-07T09:48:20.770Z,75.95
2022-11-07T09:53:34.016Z,76.67
2022-11-07T09:58:43.117Z,77.37
2022-11-07T10:04:10.243Z,76.85
2022-11-07T10:09:29.711Z,75.99
2022-11-07T10:14:40.669Z,73.45
2022-11-07T10:19:57.767Z,73.84
2022-11-07T10:25:14.429Z,75.07
2022-11-07T10:30:19.844Z,74.75
2022-11-07T10:35:38.553Z,73.17
2022-11-07T10:40:41.509Z,72.61
2022-11-07T10:45:43.052Z,71.96
2022-11-07T10:50:54.476Z,70.95
2022-11-07T10:55:56.217Z,71.50
2022-11-07T11:01:05.457Z,71.00
2022-11-07T11:06:18.867Z,72.35
2022-11-07T11:11:34.272Z,73.39
2022-11-07T11:16:39.108Z,72.56
2022-11-07T11:21:46.280Z,71.18
2022-11-07T11:26:50.995Z,72.29
2022-11-07T11:31:57.342Z,72.53
2022-11-07T11:37:18.609Z,72.71
2022-11-07T11:42:36.780Z,71.03
2022-11-07T11:47:43.975Z,70.96
2022-11-07T11:52:45.932Z,70.00
2022-11-07T11:57:47.328Z,71.09
2022-11-07T12:02:54.286Z,69.54
2022-11-07T12:07:58.572Z,68.96
2022-11-07T12:13:05.650Z,67.80
2022-11-07T12:18:15.856Z,68.33
2022-11-07T12:23:46.970Z,70.07
2022-11-07T12:29:05.185Z,71.37
2022-11-07T12:34:25.337Z,71.27
2022-11-07T12:39:38.761Z,70.64
2022-11-07T12:44:49.336Z,69.79
2022-11-07T12:50:29.369Z,70.13
2022-11-07T12:55:39.975Z,70.32
2022-11-07T13:00:42.347Z,69.46
2022-11-07T13:05:50.372Z,70.30
2022-11-07T13:11:27.677Z,70.34
2022-11-07T13:16:35.655Z,70.06
2022-11-07T13:21:44.200Z,69.01
2022-11-07T13:26:47.342Z,69.17
2022-11-07T13:32:05.429Z,69.79
2022-11-07T13:37:10.960Z,69.41
2022-11-07T13:42:17.967Z,70.26
2022-11-07T13:47:26.277Z,69.87
2022-11-07T13:53:01.823Z,70.06
2022-11-07T13:58:08.839Z,71.56
2022-11-07T14:03:29.396Z,71.78
2022-11-07T14:08:40.528Z,72.02
2022-11-07T14:13:42.117Z,72.76
2022-11-07T14:18:48.404Z,73.39
2022-11-07T14:23:49.859Z,74.40
2022-11-07T14:28:53.825Z,73.80
2022-11-07T14:33:58.872Z,75.31
2022-11-07T14:39:04.807Z,75.14
2022-11-07T14:44:12.666Z,75.44
2022-11-07T14:49:27.624Z,75.90
2022-11-07T14:54:35.401Z,76.55
2022-11-07T14:59:37.817Z,77.39
2022-11-07T15:04:45.411Z,78.04
2022-11-07T15:09:46.966Z,78.89
2022-11-07T15:15:01.731Z,79.72
2022-11-07T15:20:07.158Z,79.56
2022-11-07T15:25:38.384Z,81.45
2022-11-07T15:30:39.843Z,79.68
2022-11-07T15:35:44.527Z,80.12
2022-11-07T15:40:47.091Z,80.75
2022-11-07T15:45:50.640Z,79.97
2022-11-07T15:50:52.114Z,80.02
2022-11-07T15:55:55.994Z,80.11
2022-11-07T16:00:58.659Z,79.53
2022-11-07T16:06:01.676Z,80.21
2022-11-07T16:11:04.516Z,80.50
2022-11-07T16:16:07.420Z,79.69
2022-11-07T16:21:08.839Z,80.07
2022-11-07T16:26:14.687Z,79.44
2022-11-07T16:31:16.145Z,80.09
2022-11-07T16:36:31.775Z,80.36
2022-11-07T16:41:33.837Z,79.67
2022-11-07T16:46:36.775Z,80.04
2022-11-07T16:51:38.236Z,80.21
2022-11-07T16:56:40.686Z,80.38
2022-11-07T17:01:42.221Z,80.46
2022-11-07T17:06:48.874Z,80.38
2022-11-07T17:11:50.329Z,80.33
2022-11-07T17:16:51.752Z,80.65
2022-11-07T17:21:53.779Z,80.85
2022-11-07T17:26:55.227Z,80.51
2022-11-07T17:31:56.710Z,80.51
2022-11-07T17:36:59.522Z,80.12
2022-11-07T17:42:00.923Z,80.46
2022-11-07T17:47:02.754Z,80.73
2022-11-07T17:52:04.431Z,80.65
2022-11-07T17:57:08.859Z,81.24
2022-11-07T18:02:15.293Z,81.24
2022-11-07T18:07:17.149Z,81.80
2022-11-07T18:12:18.710Z,82.26
2022-11-07T18:17:20.793Z,82.19
2022-11-07T18:22:22.242Z,82.88
2022-11-07T18:27:23.739Z,83.53
2022-11-07T18:32:25.201Z,83.57
2022-11-07T18:37:26.605Z,84.12
2022-11-07T18:42:29.121Z,83.90
2022-11-07T18:47:30.992Z,84.46
2022-11-07T18:52:33.352Z,84.52
2022-11-07T18:57:34.803Z,84.46
2022-11-07T19:02:36.281Z,85.35
2022-11-07T19:07:39.788Z,86.27
2022-11-07T19:12:41.894Z,87.46
2022-11-07T19:17:43.329Z,86.53
2022-11-07T19:22:44.727Z,86.48
2022-11-07T19:27:50.563Z,87.20
2022-11-07T19:32:52.140Z,86.62
2022-11-07T19:37:53.560Z,86.66
2022-11-07T19:42:56.344Z,86.97
2022-11-07T19:47:57.831Z,86.81
2022-11-07T19:52:59.252Z,87.66
2022-11-07T19:58:00.712Z,86.95
2022-11-07T20:03:02.216Z,86.68
2022-11-07T20:08:05.141Z,86.71
2022-11-07T20:13:06.910Z,86.31
2022-11-07T20:18:08.432Z,86.66
2022-11-07T20:23:10.231Z,86.46
2022-11-07T20:28:11.638Z,86.55
2022-11-07T20:33:13.083Z,86.64
2022-11-07T20:38:14.519Z,86.75
2022-11-07T20:43:16.423Z,86.91
2022-11-07T20:48:19.038Z,87.43
2022-11-07T20:53:20.648Z,87.19
2022-11-07T20:58:22.080Z,87.44
2022-11-07T21:03:23.503Z,87.07
2022-11-07T21:08:25.348Z,87.50
2022-11-07T21:13:26.773Z,87.48
2022-11-07T21:18:28.185Z,87.50
2022-11-07T21:23:29.624Z,87.53
2022-11-07T21:28:31.051Z,87.62
2022-11-07T21:33:32.733Z,87.51
2022-11-07T21:38:34.145Z,87.63
2022-11-07T21:43:36.522Z,87.67
2022-11-07T21:48:39.118Z,87.74
2022-11-07T21:53:41.014Z,87.89
2022-11-07T21:58:42.570Z,88.35
2022-11-07T22:04:05.338Z,89.22
2022-11-07T22:09:07.463Z,89.13
2022-11-07T22:14:14.005Z,89.18
2022-11-07T22:19:17.201Z,89.44
2022-11-07T22:24:18.658Z,89.32
2022-11-07T22:29:20.179Z,89.23
2022-11-07T22:34:21.644Z,89.02
2022-11-07T22:39:23.058Z,88.55
2022-11-07T22:44:24.518Z,88.02
2022-11-07T22:49:25.945Z,87.62
2022-11-07T22:54:27.338Z,87.74
2022-11-07T22:59:28.736Z,87.50
2022-11-07T23:04:32.926Z,87.80
2022-11-07T23:09:34.623Z,87.47
2022-11-07T23:14:36.120Z,87.82
2022-11-07T23:19:37.560Z,87.95
2022-11-07T23:24:39.006Z,88.18
2022-11-07T23:29:40.437Z,88.53
2022-11-07T23:34:41.900Z,88.65
2022-11-07T23:39:43.855Z,88.94
2022-11-07T23:45:03.819Z,89.02
2022-11-07T23:50:24.261Z,88.80
2022-11-07T23:55:40.815Z,88.57
